sensor_id;sensor_type;location;lat;lon;timestamp;P1;durP1;ratioP1;P2;durP2;ratioP2
63817;SDS011;53093;55.092;73.476;2022-12-10T00:01:28;22.15;;;7.80;;
63817;SDS011;53093;55.092;73.476;2022-12-10T00:03:55;23.98;;;8.30;;
63817;SDS011;53093;55.092;73.476;2022-12-10T00:06:24;24.10;;;7.80;;
63817;SDS011;53093;55.092;73.476;2022-12-10T00:08:51;27.25;;;8.38;;
63817;SDS011;53093;55.092;73.476;2022-12-10T00:11:28;21.95;;;7.32;;
63817;SDS011;53093;55.092;73.476;2022-12-10T00:14:00;24.60;;;8.57;;
63817;SDS011;53093;55.092;73.476;2022-12-10T00:16:33;24.65;;;8.00;;
63817;SDS011;53093;55.092;73.476;2022-12-10T00:19:03;20.77;;;7.10;;
63817;SDS011;53093;55.092;73.476;2022-12-10T00:21:32;27.08;;;8.38;;
63817;SDS011;53093;55.092;73.476;2022-12-10T00:23:59;22.90;;;9.00;;
63817;SDS011;53093;55.092;73.476;2022-12-10T00:26:34;22.65;;;7.15;;
63817;SDS011;53093;55.092;73.476;2022-12-10T00:29:02;25.20;;;8.13;;
63817;SDS011;53093;55.092;73.476;2022-12-10T00:31:31;23.80;;;8.13;;
63817;SDS011;53093;55.092;73.476;2022-12-10T00:33:59;22.38;;;7.38;;
63817;SDS011;53093;55.092;73.476;2022-12-10T00:36:28;20.73;;;6.63;;
63817;SDS011;53093;55.092;73.476;2022-12-10T00:38:55;25.98;;;7.95;;
63817;SDS011;53093;55.092;73.476;2022-12-10T00:41:22;24.08;;;8.30;;
63817;SDS011;53093;55.092;73.476;2022-12-10T00:43:49;22.98;;;7.80;;
63817;SDS011;53093;55.092;73.476;2022-12-10T00:46:16;25.00;;;7.13;;
63817;SDS011;53093;55.092;73.476;2022-12-10T00:48:54;22.45;;;7.00;;
63817;SDS011;53093;55.092;73.476;2022-12-10T00:51:31;26.90;;;8.43;;
63817;SDS011;53093;55.092;73.476;2022-12-10T00:53:58;25.17;;;7.97;;
63817;SDS011;53093;55.092;73.476;2022-12-10T00:56:27;24.05;;;9.10;;
63817;SDS011;53093;55.092;73.476;2022-12-10T00:58:54;26.95;;;8.93;;
63817;SDS011;53093;55.092;73.476;2022-12-10T01:01:28;23.05;;;7.97;;
63817;SDS011;53093;55.092;73.476;2022-12-10T01:03:56;20.50;;;7.33;;
63817;SDS011;53093;55.092;73.476;2022-12-10T01:06:28;20.63;;;7.28;;
63817;SDS011;53093;55.092;73.476;2022-12-10T01:08:56;17.65;;;6.68;;
63817;SDS011;53093;55.092;73.476;2022-12-10T01:11:25;19.52;;;7.57;;
63817;SDS011;53093;55.092;73.476;2022-12-10T01:13:52;21.25;;;7.72;;
63817;SDS011;53093;55.092;73.476;2022-12-10T01:16:22;20.35;;;6.82;;
63817;SDS011;53093;55.092;73.476;2022-12-10T01:18:54;18.15;;;6.70;;
63817;SDS011;53093;55.092;73.476;2022-12-10T01:21:22;18.00;;;7.28;;
63817;SDS011;53093;55.092;73.476;2022-12-10T01:23:56;19.75;;;6.43;;
63817;SDS011;53093;55.092;73.476;2022-12-10T01:26:24;20.65;;;6.85;;
63817;SDS011;53093;55.092;73.476;2022-12-10T01:28:51;22.33;;;7.18;;
63817;SDS011;53093;55.092;73.476;2022-12-10T01:31:20;21.02;;;6.85;;
63817;SDS011;53093;55.092;73.476;2022-12-10T01:33:48;19.75;;;7.20;;
63817;SDS011;53093;55.092;73.476;2022-12-10T01:36:25;21.42;;;7.50;;
63817;SDS011;53093;55.092;73.476;2022-12-10T01:38:56;26.48;;;9.30;;
63817;SDS011;53093;55.092;73.476;2022-12-10T01:46:26;22.75;;;8.48;;
63817;SDS011;53093;55.092;73.476;2022-12-10T01:49:00;23.75;;;8.07;;
63817;SDS011;53093;55.092;73.476;2022-12-10T01:51:29;20.08;;;7.25;;
63817;SDS011;53093;55.092;73.476;2022-12-10T01:53:56;21.23;;;7.50;;
63817;SDS011;53093;55.092;73.476;2022-12-10T01:56:23;20.67;;;6.57;;
63817;SDS011;53093;55.092;73.476;2022-12-10T01:58:51;21.95;;;8.02;;
63817;SDS011;53093;55.092;73.476;2022-12-10T02:04:20;23.90;;;7.32;;
63817;SDS011;53093;55.092;73.476;2022-12-10T02:06:59;24.38;;;7.72;;
63817;SDS011;53093;55.092;73.476;2022-12-10T02:17:05;22.00;;;7.55;;
63817;SDS011;53093;55.092;73.476;2022-12-10T02:19:44;17.10;;;6.55;;
63817;SDS011;53093;55.092;73.476;2022-12-10T02:22:20;19.75;;;7.35;;
63817;SDS011;53093;55.092;73.476;2022-12-10T02:24:47;23.63;;;9.82;;
63817;SDS011;53093;55.092;73.476;2022-12-10T02:29:57;19.42;;;8.77;;
63817;SDS011;53093;55.092;73.476;2022-12-10T02:32:36;18.08;;;6.80;;
63817;SDS011;53093;55.092;73.476;2022-12-10T02:35:06;15.50;;;6.68;;
63817;SDS011;53093;55.092;73.476;2022-12-10T02:37:34;18.67;;;6.55;;
63817;SDS011;53093;55.092;73.476;2022-12-10T02:40:05;17.95;;;6.82;;
63817;SDS011;53093;55.092;73.476;2022-12-10T02:42:38;16.37;;;6.27;;
63817;SDS011;53093;55.092;73.476;2022-12-10T02:45:07;21.13;;;7.65;;
63817;SDS011;53093;55.092;73.476;2022-12-10T02:47:35;15.02;;;7.07;;
63817;SDS011;53093;55.092;73.476;2022-12-10T02:50:04;20.65;;;6.72;;
63817;SDS011;53093;55.092;73.476;2022-12-10T02:52:32;18.55;;;7.47;;
63817;SDS011;53093;55.092;73.476;2022-12-10T02:54:59;17.35;;;6.30;;
63817;SDS011;53093;55.092;73.476;2022-12-10T03:00:10;17.40;;;6.70;;
63817;SDS011;53093;55.092;73.476;2022-12-10T03:03:21;19.75;;;6.95;;
63817;SDS011;53093;55.092;73.476;2022-12-10T03:08:28;20.48;;;7.82;;
63817;SDS011;53093;55.092;73.476;2022-12-10T03:13:32;20.98;;;8.23;;
63817;SDS011;53093;55.092;73.476;2022-12-10T03:16:02;19.30;;;7.35;;
63817;SDS011;53093;55.092;73.476;2022-12-10T03:18:31;22.98;;;8.30;;
63817;SDS011;53093;55.092;73.476;2022-12-10T03:21:01;18.25;;;7.68;;
63817;SDS011;53093;55.092;73.476;2022-12-10T03:23:29;25.17;;;9.10;;
63817;SDS011;53093;55.092;73.476;2022-12-10T03:26:07;21.85;;;8.13;;
63817;SDS011;53093;55.092;73.476;2022-12-10T03:28:40;23.08;;;8.27;;
63817;SDS011;53093;55.092;73.476;2022-12-10T03:31:18;21.42;;;7.50;;
63817;SDS011;53093;55.092;73.476;2022-12-10T03:33:51;18.75;;;8.60;;
63817;SDS011;53093;55.092;73.476;2022-12-10T03:36:19;22.35;;;7.63;;
63817;SDS011;53093;55.092;73.476;2022-12-10T03:38:46;22.75;;;8.88;;
63817;SDS011;53093;55.092;73.476;2022-12-10T03:41:23;22.38;;;9.00;;
63817;SDS011;53093;55.092;73.476;2022-12-10T03:43:50;28.60;;;12.40;;
63817;SDS011;53093;55.092;73.476;2022-12-10T03:46:17;38.85;;;14.18;;
63817;SDS011;53093;55.092;73.476;2022-12-10T03:48:54;39.45;;;15.82;;
63817;SDS011;53093;55.092;73.476;2022-12-10T03:51:21;34.33;;;12.82;;
63817;SDS011;53093;55.092;73.476;2022-12-10T03:53:58;31.65;;;11.77;;
63817;SDS011;53093;55.092;73.476;2022-12-10T03:56:25;30.85;;;13.48;;
63817;SDS011;53093;55.092;73.476;2022-12-10T03:58:57;30.80;;;12.68;;
63817;SDS011;53093;55.092;73.476;2022-12-10T04:01:26;34.40;;;12.20;;
63817;SDS011;53093;55.092;73.476;2022-12-10T04:04:03;32.20;;;11.82;;
63817;SDS011;53093;55.092;73.476;2022-12-10T04:06:30;21.65;;;9.00;;
63817;SDS011;53093;55.092;73.476;2022-12-10T04:09:01;22.45;;;8.40;;
63817;SDS011;53093;55.092;73.476;2022-12-10T04:11:28;21.02;;;8.73;;
63817;SDS011;53093;55.092;73.476;2022-12-10T04:13:55;20.70;;;8.55;;
63817;SDS011;53093;55.092;73.476;2022-12-10T04:16:40;23.27;;;8.70;;
63817;SDS011;53093;55.092;73.476;2022-12-10T04:19:08;21.27;;;7.80;;
63817;SDS011;53093;55.092;73.476;2022-12-10T04:21:36;20.05;;;8.15;;
63817;SDS011;53093;55.092;73.476;2022-12-10T04:24:23;18.38;;;7.68;;
63817;SDS011;53093;55.092;73.476;2022-12-10T04:27:17;19.45;;;7.50;;
63817;SDS011;53093;55.092;73.476;2022-12-10T04:29:45;21.70;;;8.07;;
63817;SDS011;53093;55.092;73.476;2022-12-10T04:32:12;23.25;;;8.20;;
63817;SDS011;53093;55.092;73.476;2022-12-10T04:34:39;21.30;;;8.63;;
63817;SDS011;53093;55.092;73.476;2022-12-10T04:37:06;19.75;;;7.47;;
63817;SDS011;53093;55.092;73.476;2022-12-10T04:39:32;20.15;;;8.05;;
63817;SDS011;53093;55.092;73.476;2022-12-10T04:42:00;23.05;;;8.10;;
63817;SDS011;53093;55.092;73.476;2022-12-10T04:44:27;23.85;;;8.40;;
63817;SDS011;53093;55.092;73.476;2022-12-10T04:46:59;23.23;;;7.82;;
63817;SDS011;53093;55.092;73.476;2022-12-10T04:49:37;20.85;;;7.78;;
63817;SDS011;53093;55.092;73.476;2022-12-10T04:52:04;23.58;;;9.30;;
63817;SDS011;53093;55.092;73.476;2022-12-10T04:54:31;22.10;;;7.72;;
63817;SDS011;53093;55.092;73.476;2022-12-10T04:56:58;24.33;;;8.80;;
63817;SDS011;53093;55.092;73.476;2022-12-10T04:59:25;19.30;;;7.75;;
63817;SDS011;53093;55.092;73.476;2022-12-10T05:01:53;22.13;;;8.05;;
63817;SDS011;53093;55.092;73.476;2022-12-10T05:04:20;24.17;;;8.00;;
63817;SDS011;53093;55.092;73.476;2022-12-10T05:06:47;20.55;;;7.88;;
63817;SDS011;53093;55.092;73.476;2022-12-10T05:09:18;19.23;;;6.30;;
63817;SDS011;53093;55.092;73.476;2022-12-10T05:11:45;16.15;;;7.20;;
63817;SDS011;53093;55.092;73.476;2022-12-10T05:14:12;20.00;;;7.93;;
63817;SDS011;53093;55.092;73.476;2022-12-10T05:16:39;19.48;;;7.47;;
63817;SDS011;53093;55.092;73.476;2022-12-10T05:19:10;14.95;;;5.88;;
63817;SDS011;53093;55.092;73.476;2022-12-10T05:21:37;15.05;;;5.80;;
63817;SDS011;53093;55.092;73.476;2022-12-10T05:24:24;15.93;;;6.13;;
63817;SDS011;53093;55.092;73.476;2022-12-10T05:26:51;12.77;;;6.22;;
63817;SDS011;53093;55.092;73.476;2022-12-10T05:29:28;15.52;;;5.85;;
63817;SDS011;53093;55.092;73.476;2022-12-10T05:31:55;12.00;;;5.57;;
63817;SDS011;53093;55.092;73.476;2022-12-10T05:34:22;13.70;;;6.22;;
63817;SDS011;53093;55.092;73.476;2022-12-10T05:36:54;12.00;;;5.57;;
63817;SDS011;53093;55.092;73.476;2022-12-10T05:39:21;16.95;;;7.55;;
63817;SDS011;53093;55.092;73.476;2022-12-10T05:41:48;16.05;;;6.50;;
63817;SDS011;53093;55.092;73.476;2022-12-10T05:44:15;13.35;;;5.18;;
63817;SDS011;53093;55.092;73.476;2022-12-10T05:46:42;12.15;;;5.18;;
63817;SDS011;53093;55.092;73.476;2022-12-10T05:49:09;13.13;;;5.97;;
63817;SDS011;53093;55.092;73.476;2022-12-10T05:51:36;11.85;;;5.28;;
63817;SDS011;53093;55.092;73.476;2022-12-10T05:54:09;16.58;;;6.35;;
63817;SDS011;53093;55.092;73.476;2022-12-10T05:56:36;16.23;;;5.40;;
63817;SDS011;53093;55.092;73.476;2022-12-10T05:59:03;13.05;;;5.60;;
63817;SDS011;53093;55.092;73.476;2022-12-10T06:01:32;12.63;;;4.57;;
63817;SDS011;53093;55.092;73.476;2022-12-10T06:04:00;13.48;;;5.80;;
63817;SDS011;53093;55.092;73.476;2022-12-10T06:06:28;14.10;;;6.30;;
63817;SDS011;53093;55.092;73.476;2022-12-10T06:09:00;10.65;;;4.60;;
63817;SDS011;53093;55.092;73.476;2022-12-10T06:11:28;11.30;;;4.28;;
63817;SDS011;53093;55.092;73.476;2022-12-10T06:14:00;8.73;;;4.13;;
63817;SDS011;53093;55.092;73.476;2022-12-10T06:16:28;10.65;;;4.70;;
63817;SDS011;53093;55.092;73.476;2022-12-10T06:18:56;11.98;;;4.85;;
63817;SDS011;53093;55.092;73.476;2022-12-10T06:21:23;10.88;;;5.30;;
63817;SDS011;53093;55.092;73.476;2022-12-10T06:23:51;14.05;;;7.05;;
63817;SDS011;53093;55.092;73.476;2022-12-10T06:26:20;17.55;;;7.75;;
63817;SDS011;53093;55.092;73.476;2022-12-10T06:28:57;13.35;;;5.93;;
63817;SDS011;53093;55.092;73.476;2022-12-10T06:31:24;20.02;;;7.82;;
63817;SDS011;53093;55.092;73.476;2022-12-10T06:34:01;17.52;;;6.55;;
63817;SDS011;53093;55.092;73.476;2022-12-10T06:36:28;10.82;;;4.32;;
63817;SDS011;53093;55.092;73.476;2022-12-10T06:38:55;13.63;;;4.70;;
63817;SDS011;53093;55.092;73.476;2022-12-10T06:41:22;11.55;;;5.03;;
63817;SDS011;53093;55.092;73.476;2022-12-10T06:43:49;11.07;;;4.75;;
63817;SDS011;53093;55.092;73.476;2022-12-10T06:46:17;9.70;;;4.93;;
63817;SDS011;53093;55.092;73.476;2022-12-10T06:48:50;8.77;;;4.85;;
63817;SDS011;53093;55.092;73.476;2022-12-10T06:51:17;14.73;;;5.65;;
63817;SDS011;53093;55.092;73.476;2022-12-10T06:53:53;11.35;;;5.03;;
63817;SDS011;53093;55.092;73.476;2022-12-10T06:56:20;12.95;;;5.85;;
63817;SDS011;53093;55.092;73.476;2022-12-10T06:58:47;8.82;;;4.15;;
63817;SDS011;53093;55.092;73.476;2022-12-10T07:03:41;12.23;;;5.72;;
63817;SDS011;53093;55.092;73.476;2022-12-10T07:06:19;14.90;;;7.72;;
63817;SDS011;53093;55.092;73.476;2022-12-10T07:08:46;13.13;;;5.15;;
63817;SDS011;53093;55.092;73.476;2022-12-10T07:11:15;10.13;;;4.78;;
63817;SDS011;53093;55.092;73.476;2022-12-10T07:13:42;12.25;;;5.75;;
63817;SDS011;53093;55.092;73.476;2022-12-10T07:16:16;9.80;;;4.50;;
63817;SDS011;53093;55.092;73.476;2022-12-10T07:18:43;13.07;;;4.75;;
63817;SDS011;53093;55.092;73.476;2022-12-10T07:21:17;11.57;;;4.72;;
63817;SDS011;53093;55.092;73.476;2022-12-10T07:23:44;12.05;;;5.00;;
63817;SDS011;53093;55.092;73.476;2022-12-10T07:26:11;8.77;;;4.00;;
63817;SDS011;53093;55.092;73.476;2022-12-10T07:28:38;9.43;;;4.13;;
63817;SDS011;53093;55.092;73.476;2022-12-10T07:31:06;7.45;;;3.70;;
63817;SDS011;53093;55.092;73.476;2022-12-10T07:33:34;9.88;;;4.15;;
63817;SDS011;53093;55.092;73.476;2022-12-10T07:36:10;11.18;;;5.18;;
63817;SDS011;53093;55.092;73.476;2022-12-10T07:38:38;9.95;;;4.32;;
63817;SDS011;53093;55.092;73.476;2022-12-10T07:41:05;57.75;;;19.63;;
63817;SDS011;53093;55.092;73.476;2022-12-10T07:43:33;12.23;;;5.03;;
63817;SDS011;53093;55.092;73.476;2022-12-10T07:46:04;8.27;;;3.42;;
63817;SDS011;53093;55.092;73.476;2022-12-10T07:48:31;9.07;;;3.85;;
63817;SDS011;53093;55.092;73.476;2022-12-10T07:50:59;14.43;;;5.95;;
63817;SDS011;53093;55.092;73.476;2022-12-10T07:53:26;13.82;;;5.35;;
63817;SDS011;53093;55.092;73.476;2022-12-10T07:55:53;21.33;;;8.45;;
63817;SDS011;53093;55.092;73.476;2022-12-10T07:58:31;13.90;;;5.57;;
63817;SDS011;53093;55.092;73.476;2022-12-10T08:00:58;13.35;;;6.50;;
63817;SDS011;53093;55.092;73.476;2022-12-10T08:03:25;14.98;;;5.03;;
63817;SDS011;53093;55.092;73.476;2022-12-10T08:06:04;10.20;;;5.05;;
63817;SDS011;53093;55.092;73.476;2022-12-10T08:08:35;10.10;;;5.40;;
63817;SDS011;53093;55.092;73.476;2022-12-10T08:11:02;16.77;;;8.45;;
63817;SDS011;53093;55.092;73.476;2022-12-10T08:13:30;20.92;;;9.52;;
63817;SDS011;53093;55.092;73.476;2022-12-10T08:16:01;11.70;;;6.10;;
63817;SDS011;53093;55.092;73.476;2022-12-10T08:18:29;14.85;;;7.30;;
63817;SDS011;53093;55.092;73.476;2022-12-10T08:20:56;17.88;;;6.25;;
63817;SDS011;53093;55.092;73.476;2022-12-10T08:23:23;21.10;;;8.07;;
63817;SDS011;53093;55.092;73.476;2022-12-10T08:25:50;13.65;;;6.68;;
63817;SDS011;53093;55.092;73.476;2022-12-10T08:28:16;15.93;;;6.80;;
63817;SDS011;53093;55.092;73.476;2022-12-10T08:30:47;20.77;;;7.53;;
63817;SDS011;53093;55.092;73.476;2022-12-10T08:33:15;18.23;;;7.07;;
63817;SDS011;53093;55.092;73.476;2022-12-10T08:35:42;16.42;;;6.93;;
63817;SDS011;53093;55.092;73.476;2022-12-10T08:38:18;14.77;;;7.20;;
63817;SDS011;53093;55.092;73.476;2022-12-10T08:40:45;14.95;;;5.30;;
63817;SDS011;53093;55.092;73.476;2022-12-10T08:43:12;9.98;;;4.05;;
63817;SDS011;53093;55.092;73.476;2022-12-10T08:45:40;27.38;;;7.75;;
63817;SDS011;53093;55.092;73.476;2022-12-10T08:48:06;23.27;;;7.72;;
63817;SDS011;53093;55.092;73.476;2022-12-10T08:50:34;12.15;;;6.18;;
63817;SDS011;53093;55.092;73.476;2022-12-10T08:53:01;16.55;;;7.18;;
63817;SDS011;53093;55.092;73.476;2022-12-10T08:55:27;13.52;;;5.85;;
63817;SDS011;53093;55.092;73.476;2022-12-10T08:57:55;21.20;;;8.70;;
63817;SDS011;53093;55.092;73.476;2022-12-10T09:00:22;25.55;;;8.80;;
63817;SDS011;53093;55.092;73.476;2022-12-10T09:02:51;26.88;;;8.27;;
63817;SDS011;53093;55.092;73.476;2022-12-10T09:07:53;14.15;;;5.38;;
63817;SDS011;53093;55.092;73.476;2022-12-10T09:10:19;15.65;;;6.18;;
63817;SDS011;53093;55.092;73.476;2022-12-10T09:12:48;13.60;;;5.72;;
63817;SDS011;53093;55.092;73.476;2022-12-10T09:15:15;8.30;;;3.90;;
63817;SDS011;53093;55.092;73.476;2022-12-10T09:17:42;8.43;;;3.90;;
63817;SDS011;53093;55.092;73.476;2022-12-10T09:20:09;8.65;;;3.78;;
63817;SDS011;53093;55.092;73.476;2022-12-10T09:22:36;26.58;;;11.20;;
63817;SDS011;53093;55.092;73.476;2022-12-10T09:25:04;39.72;;;16.38;;
63817;SDS011;53093;55.092;73.476;2022-12-10T09:27:32;19.80;;;8.38;;
63817;SDS011;53093;55.092;73.476;2022-12-10T09:29:59;25.95;;;11.20;;
63817;SDS011;53093;55.092;73.476;2022-12-10T09:32:26;21.02;;;9.63;;
63817;SDS011;53093;55.092;73.476;2022-12-10T09:34:53;18.02;;;7.88;;
63817;SDS011;53093;55.092;73.476;2022-12-10T09:37:20;21.25;;;6.30;;
63817;SDS011;53093;55.092;73.476;2022-12-10T09:39:50;11.63;;;5.20;;
63817;SDS011;53093;55.092;73.476;2022-12-10T09:45:05;12.80;;;4.68;;
63817;SDS011;53093;55.092;73.476;2022-12-10T09:47:36;12.75;;;5.45;;
63817;SDS011;53093;55.092;73.476;2022-12-10T09:50:16;12.85;;;4.90;;
63817;SDS011;53093;55.092;73.476;2022-12-10T09:52:45;22.60;;;6.53;;
63817;SDS011;53093;55.092;73.476;2022-12-10T09:55:18;15.93;;;5.63;;
63817;SDS011;53093;55.092;73.476;2022-12-10T09:57:48;14.07;;;5.57;;
63817;SDS011;53093;55.092;73.476;2022-12-10T10:02:54;13.05;;;4.55;;
63817;SDS011;53093;55.092;73.476;2022-12-10T10:07:57;15.85;;;5.97;;
63817;SDS011;53093;55.092;73.476;2022-12-10T10:10:27;24.13;;;7.82;;
63817;SDS011;53093;55.092;73.476;2022-12-10T10:15:37;12.18;;;5.78;;
63817;SDS011;53093;55.092;73.476;2022-12-10T10:18:20;11.93;;;4.57;;
63817;SDS011;53093;55.092;73.476;2022-12-10T10:20:48;9.70;;;4.60;;
63817;SDS011;53093;55.092;73.476;2022-12-10T10:23:25;12.15;;;4.72;;
63817;SDS011;53093;55.092;73.476;2022-12-10T10:26:02;9.65;;;4.50;;
63817;SDS011;53093;55.092;73.476;2022-12-10T10:28:29;9.40;;;4.68;;
63817;SDS011;53093;55.092;73.476;2022-12-10T10:30:56;13.63;;;5.13;;
63817;SDS011;53093;55.092;73.476;2022-12-10T10:33:23;10.40;;;4.93;;
63817;SDS011;53093;55.092;73.476;2022-12-10T10:35:54;13.98;;;7.45;;
63817;SDS011;53093;55.092;73.476;2022-12-10T10:38:27;9.25;;;4.50;;
63817;SDS011;53093;55.092;73.476;2022-12-10T10:40:59;11.57;;;4.38;;
63817;SDS011;53093;55.092;73.476;2022-12-10T10:43:32;13.43;;;4.97;;
63817;SDS011;53093;55.092;73.476;2022-12-10T10:51:49;9.73;;;4.20;;
63817;SDS011;53093;55.092;73.476;2022-12-10T10:54:40;12.07;;;4.22;;
63817;SDS011;53093;55.092;73.476;2022-12-10T10:57:33;14.73;;;4.78;;
63817;SDS011;53093;55.092;73.476;2022-12-10T11:00:03;11.13;;;4.65;;
63817;SDS011;53093;55.092;73.476;2022-12-10T11:02:33;8.90;;;4.18;;
63817;SDS011;53093;55.092;73.476;2022-12-10T11:05:08;10.40;;;4.10;;
63817;SDS011;53093;55.092;73.476;2022-12-10T11:07:36;8.77;;;3.70;;
63817;SDS011;53093;55.092;73.476;2022-12-10T11:10:04;11.25;;;3.65;;
63817;SDS011;53093;55.092;73.476;2022-12-10T11:12:42;13.20;;;4.38;;
63817;SDS011;53093;55.092;73.476;2022-12-10T11:17:51;11.30;;;4.45;;
63817;SDS011;53093;55.092;73.476;2022-12-10T11:20:19;11.75;;;5.30;;
63817;SDS011;53093;55.092;73.476;2022-12-10T11:22:56;11.55;;;5.35;;
63817;SDS011;53093;55.092;73.476;2022-12-10T11:30:38;11.93;;;5.43;;
63817;SDS011;53093;55.092;73.476;2022-12-10T11:33:21;11.77;;;5.45;;
63817;SDS011;53093;55.092;73.476;2022-12-10T11:38:54;13.20;;;5.30;;
63817;SDS011;53093;55.092;73.476;2022-12-10T11:41:32;13.25;;;5.03;;
63817;SDS011;53093;55.092;73.476;2022-12-10T11:44:13;12.38;;;5.15;;
63817;SDS011;53093;55.092;73.476;2022-12-10T11:51:49;14.82;;;6.35;;
63817;SDS011;53093;55.092;73.476;2022-12-10T11:54:37;16.25;;;5.50;;
63817;SDS011;53093;55.092;73.476;2022-12-10T11:59:44;9.27;;;4.13;;
63817;SDS011;53093;55.092;73.476;2022-12-10T12:12:59;12.18;;;5.22;;
63817;SDS011;53093;55.092;73.476;2022-12-10T12:20:52;17.30;;;7.28;;
63817;SDS011;53093;55.092;73.476;2022-12-10T12:23:31;16.00;;;5.63;;
63817;SDS011;53093;55.092;73.476;2022-12-10T12:26:06;10.95;;;4.03;;
63817;SDS011;53093;55.092;73.476;2022-12-10T12:28:35;10.60;;;5.00;;
63817;SDS011;53093;55.092;73.476;2022-12-10T12:31:06;9.43;;;3.85;;
63817;SDS011;53093;55.092;73.476;2022-12-10T12:33:50;11.60;;;4.00;;
63817;SDS011;53093;55.092;73.476;2022-12-10T12:46:33;8.10;;;4.15;;
63817;SDS011;53093;55.092;73.476;2022-12-10T12:49:02;12.07;;;4.78;;
63817;SDS011;53093;55.092;73.476;2022-12-10T12:51:39;12.68;;;3.97;;
63817;SDS011;53093;55.092;73.476;2022-12-10T12:54:11;7.00;;;3.63;;
63817;SDS011;53093;55.092;73.476;2022-12-10T12:59:32;8.55;;;3.90;;
63817;SDS011;53093;55.092;73.476;2022-12-10T13:04:40;8.93;;;3.92;;
63817;SDS011;53093;55.092;73.476;2022-12-10T13:09:47;9.48;;;4.35;;
63817;SDS011;53093;55.092;73.476;2022-12-10T13:15:03;8.63;;;4.53;;
63817;SDS011;53093;55.092;73.476;2022-12-10T13:22:42;11.27;;;5.28;;
63817;SDS011;53093;55.092;73.476;2022-12-10T13:25:12;12.52;;;5.38;;
63817;SDS011;53093;55.092;73.476;2022-12-10T13:27:56;14.32;;;5.70;;
63817;SDS011;53093;55.092;73.476;2022-12-10T13:32:52;12.38;;;6.40;;
63817;SDS011;53093;55.092;73.476;2022-12-10T13:35:26;17.33;;;6.38;;
63817;SDS011;53093;55.092;73.476;2022-12-10T13:37:56;9.68;;;5.13;;
63817;SDS011;53093;55.092;73.476;2022-12-10T13:40:25;9.98;;;5.55;;
63817;SDS011;53093;55.092;73.476;2022-12-10T13:42:56;10.55;;;5.28;;
63817;SDS011;53093;55.092;73.476;2022-12-10T13:45:42;10.95;;;5.25;;
63817;SDS011;53093;55.092;73.476;2022-12-10T14:06:38;10.07;;;4.78;;
63817;SDS011;53093;55.092;73.476;2022-12-10T14:09:17;8.48;;;4.05;;
63817;SDS011;53093;55.092;73.476;2022-12-10T14:12:03;8.98;;;4.30;;
63817;SDS011;53093;55.092;73.476;2022-12-10T14:14:36;9.65;;;4.35;;
63817;SDS011;53093;55.092;73.476;2022-12-10T14:17:14;9.93;;;4.55;;
63817;SDS011;53093;55.092;73.476;2022-12-10T14:19:45;8.73;;;4.18;;
63817;SDS011;53093;55.092;73.476;2022-12-10T14:22:15;9.48;;;4.40;;
63817;SDS011;53093;55.092;73.476;2022-12-10T14:24:47;8.40;;;4.03;;
63817;SDS011;53093;55.092;73.476;2022-12-10T14:27:15;8.90;;;3.80;;
63817;SDS011;53093;55.092;73.476;2022-12-10T14:29:52;9.38;;;4.88;;
63817;SDS011;53093;55.092;73.476;2022-12-10T14:32:22;11.38;;;5.60;;
63817;SDS011;53093;55.092;73.476;2022-12-10T14:34:52;11.85;;;5.50;;
63817;SDS011;53093;55.092;73.476;2022-12-10T14:37:31;11.48;;;5.55;;
63817;SDS011;53093;55.092;73.476;2022-12-10T14:39:58;9.77;;;5.40;;
63817;SDS011;53093;55.092;73.476;2022-12-10T14:42:30;10.40;;;5.07;;
63817;SDS011;53093;55.092;73.476;2022-12-10T14:44:58;8.43;;;4.07;;
63817;SDS011;53093;55.092;73.476;2022-12-10T14:47:25;10.40;;;3.80;;
63817;SDS011;53093;55.092;73.476;2022-12-10T14:49:54;9.52;;;4.22;;
63817;SDS011;53093;55.092;73.476;2022-12-10T14:52:23;8.50;;;3.72;;
63817;SDS011;53093;55.092;73.476;2022-12-10T14:55:00;8.80;;;4.72;;
63817;SDS011;53093;55.092;73.476;2022-12-10T14:57:28;9.98;;;4.28;;
63817;SDS011;53093;55.092;73.476;2022-12-10T14:59:59;8.85;;;4.13;;
63817;SDS011;53093;55.092;73.476;2022-12-10T15:02:28;10.45;;;5.55;;
63817;SDS011;53093;55.092;73.476;2022-12-10T15:04:56;11.63;;;6.05;;
63817;SDS011;53093;55.092;73.476;2022-12-10T15:07:34;9.60;;;4.80;;
63817;SDS011;53093;55.092;73.476;2022-12-10T15:10:07;11.52;;;4.93;;
63817;SDS011;53093;55.092;73.476;2022-12-10T15:12:38;10.70;;;4.97;;
63817;SDS011;53093;55.092;73.476;2022-12-10T15:15:14;10.43;;;4.80;;
63817;SDS011;53093;55.092;73.476;2022-12-10T15:20:38;8.82;;;3.90;;
63817;SDS011;53093;55.092;73.476;2022-12-10T15:23:07;9.10;;;4.18;;
63817;SDS011;53093;55.092;73.476;2022-12-10T15:25:46;11.93;;;4.38;;
63817;SDS011;53093;55.092;73.476;2022-12-10T15:28:21;10.40;;;3.58;;
63817;SDS011;53093;55.092;73.476;2022-12-10T15:30:48;10.25;;;3.83;;
63817;SDS011;53093;55.092;73.476;2022-12-10T15:33:32;11.00;;;4.75;;
63817;SDS011;53093;55.092;73.476;2022-12-10T15:36:16;10.43;;;4.70;;
63817;SDS011;53093;55.092;73.476;2022-12-10T15:38:45;10.05;;;4.45;;
63817;SDS011;53093;55.092;73.476;2022-12-10T15:43:58;12.13;;;5.18;;
63817;SDS011;53093;55.092;73.476;2022-12-10T15:46:27;11.93;;;4.95;;
63817;SDS011;53093;55.092;73.476;2022-12-10T15:49:03;13.40;;;5.78;;
63817;SDS011;53093;55.092;73.476;2022-12-10T15:51:35;13.57;;;5.38;;
63817;SDS011;53093;55.092;73.476;2022-12-10T15:54:27;13.23;;;5.07;;
63817;SDS011;53093;55.092;73.476;2022-12-10T15:57:24;10.55;;;4.70;;
63817;SDS011;53093;55.092;73.476;2022-12-10T15:59:52;10.05;;;4.32;;
63817;SDS011;53093;55.092;73.476;2022-12-10T16:07:54;10.05;;;4.65;;
63817;SDS011;53093;55.092;73.476;2022-12-10T16:10:23;13.35;;;5.20;;
63817;SDS011;53093;55.092;73.476;2022-12-10T16:13:33;7.60;;;4.25;;
63817;SDS011;53093;55.092;73.476;2022-12-10T16:15:51;10.93;;;4.75;;
63817;SDS011;53093;55.092;73.476;2022-12-10T16:18:19;9.57;;;4.35;;
63817;SDS011;53093;55.092;73.476;2022-12-10T16:20:45;16.58;;;6.00;;
63817;SDS011;53093;55.092;73.476;2022-12-10T16:23:13;13.98;;;5.57;;
63817;SDS011;53093;55.092;73.476;2022-12-10T16:25:45;14.35;;;5.30;;
63817;SDS011;53093;55.092;73.476;2022-12-10T16:28:23;13.98;;;6.18;;
63817;SDS011;53093;55.092;73.476;2022-12-10T16:30:56;13.90;;;6.00;;
63817;SDS011;53093;55.092;73.476;2022-12-10T16:33:24;23.02;;;8.10;;
63817;SDS011;53093;55.092;73.476;2022-12-10T16:35:52;23.20;;;9.18;;
63817;SDS011;53093;55.092;73.476;2022-12-10T16:38:19;27.92;;;9.82;;
63817;SDS011;53093;55.092;73.476;2022-12-10T16:40:47;26.52;;;10.85;;
63817;SDS011;53093;55.092;73.476;2022-12-10T16:43:14;47.92;;;17.83;;
63817;SDS011;53093;55.092;73.476;2022-12-10T16:45:41;49.28;;;18.88;;
63817;SDS011;53093;55.092;73.476;2022-12-10T16:48:08;58.08;;;19.85;;
63817;SDS011;53093;55.092;73.476;2022-12-10T16:50:35;48.05;;;16.90;;
63817;SDS011;53093;55.092;73.476;2022-12-10T16:53:05;51.90;;;17.75;;
63817;SDS011;53093;55.092;73.476;2022-12-10T16:55:33;43.72;;;16.70;;
63817;SDS011;53093;55.092;73.476;2022-12-10T16:58:00;48.47;;;16.77;;
63817;SDS011;53093;55.092;73.476;2022-12-10T17:00:27;42.22;;;14.77;;
63817;SDS011;53093;55.092;73.476;2022-12-10T17:02:54;46.30;;;14.45;;
63817;SDS011;53093;55.092;73.476;2022-12-10T17:05:35;38.75;;;14.00;;